• Join FlightAware (Why Join?)
  • Login
  • US Flag 
01:58PM EDT


 

Airport Tracker/Info


-or-


 

Live Flight TrackerFlight Track Log ✈ UAL252 ✈ 04-Aug-2013 ✈ MYNN / NAS - KEWR

Flight Track Log - Related Links

Times and Time Zones

All times are in EDT time to prevent confusion due to time zone crossing. See the UAL252 flight status page for this flight to view local times or setup timezone preferences in your user account.

Time Position Orientation Groundspeed Altitude Reporting Facility
EDT Latitude Longitude Course Direction KTS MPH feet Rate Location/Type
03:31PM 24.9925 -77.4136 25° Northeast 457 526 2,100  Level Miami Center
03:32PM 25.0031 -77.3519 79° East 267 307 4,000 2,340 Climbing Miami Center
03:33PM 25.3391 -77.2881 29° Northeast  Level FlightAware Approximate
03:33PM 25.0744 -77.3200 22° Northeast 193 222 6,800  Level Miami Center
03:34PM 25.4373 -77.2252 31° Northeast  Level FlightAware Approximate
03:34PM 25.1517 -77.2881 21° North 235 270 9,300  Level Miami Center
03:35PM 25.5399 -77.1717 24° Northeast  Level FlightAware Approximate
03:35PM 25.2375 -77.2517 21° North 273 314 11,000  Level Miami Center
03:36PM 25.6427 -77.1182 25° Northeast  Level FlightAware Approximate
03:36PM 25.3358 -77.2083 22° Northeast 335 386 12,300  Level Miami Center
03:37PM 25.4447 -77.1603 22° Northeast 383 441 14,900 2,760 Climbing Miami Center
03:38PM 25.5575 -77.1122 21° North 411 473 17,900 2,880 Climbing Miami Center
03:39PM 25.6725 -77.0594 22° Northeast 430 495 20,700 2,520 Climbing Miami Center
03:40PM 25.7939 -77.0064 21° North 450 518 22,900 2,220 Climbing Miami Center
03:41PM 25.9172 -76.9533 21° North 461 531 25,200 1,980 Climbing Miami Center
03:42PM 26.0406 -76.9003 21° North 466 536 26,900 1,140 Climbing Miami Center
03:43PM 26.1597 -76.8447 23° Northeast 466 536 27,600 780 Climbing Miami Center
03:44PM 26.2892 -76.7961 19° North 471 542 28,500 960 Climbing Miami Center
03:45PM 26.4144 -76.7542 17° North 466 536 29,600 1,140 Climbing Miami Center
03:46PM 26.5439 -76.7239 12° North 472 543 30,800 660 Climbing Miami Center
03:47PM 26.6672 -76.6983 10° North 459 528 31,000 60 Climbing Miami Center
03:48PM 26.7967 -76.7097 356° North 459 528 31,000 900 Level Miami Center
03:49PM 26.9222 -76.7375 349° North 465 535 32,900 1,200 Climbing Miami Center
03:50PM 27.0286 -76.7561 351° North 455 524 33,400 720 Climbing Miami Center
03:51PM 27.1497 -76.7769 351° North 443 510 34,400 780 Climbing Miami Center
03:52PM 27.2711 -76.7956 352° North 443 510 35,000 300 Climbing Miami Center
03:53PM 27.3942 -76.8258 348° North 443 510 35,000  Level Miami Center
03:54PM 27.5133 -76.8422 353° North 443 510 35,000  Level Miami Center
03:55PM 27.6344 -76.8656 350° North 443 510 35,000  Level Miami Center
03:56PM 27.7556 -76.8961 347° North 443 510 35,000  Level Miami Center
03:57PM 27.8767 -76.9197 350° North 443 510 35,000  Level Miami Center
03:59PM 28.1208 -76.9575 352° North 443 510 35,000  Level Miami Center
04:00PM 28.2586 -76.9928 347° North 448 516 35,000  Level Miami Center
04:01PM 28.3819 -77.0167 350° North 448 516 35,000  Level Miami Center
04:02PM 28.4925 -77.0356 351° North 441 507 35,000 -60 Level Miami Center
04:03PM 28.6239 -77.0619 350° North 441 507 34,900  Descending Miami Center
04:04PM 28.7367 -77.0858 349° North 441 507 35,000  Climbing Miami Center
04:05PM 28.8639 -77.1097 351° North 441 507 35,000 -60 Level Miami Center
04:06PM 28.9786 -77.1336 350° North 430 495 34,900  Descending Miami Center
04:07PM 29.1017 -77.1603 349° North 434 499 35,000  Climbing Miami Center
04:09PM 29.3528 -77.2042 351° North 434 499 35,000  Level Jacksonville Center
04:10PM 29.4708 -77.2281 350° North 425 489 35,000  Level Jacksonville Center
04:11PM 29.5928 -77.2522 350° North 436 502 35,000  Level Jacksonville Center
04:12PM 29.7131 -77.2786 349° North 430 495 35,000 -60 Level Jacksonville Center
04:13PM 29.8267 -77.2983 351° North 422 486 34,900 -60 Descending Jacksonville Center
04:14PM 29.9403 -77.3206 350° North 421 484 34,900  Level Jacksonville Center
04:15PM 30.0692 -77.3564 346° North 416 479 35,000  Climbing Jacksonville Center
04:16PM 30.1875 -77.3447 North 412 474 34,900  Descending Jacksonville Center
04:17PM 30.3033 -77.3692 350° North 426 490 35,000  Climbing Jacksonville Center
04:18PM 30.4197 -77.4036 346° North 426 490 35,000  Level Jacksonville Center
04:19PM 30.5339 -77.4403 345° North 432 497 35,000  Level Jacksonville Center
04:20PM 30.6494 -77.4553 354° North 420 483 35,000 -60 Level Jacksonville Center
04:21PM 30.7653 -77.4825 349° North 405 466 34,900  Descending Jacksonville Center
04:22PM 30.8808 -77.5025 352° North 416 479 35,000  Climbing Jacksonville Center
04:23PM 30.9967 -77.5225 352° North 422 486 35,000  Level Jacksonville Center
04:24PM 31.1108 -77.5597 344° North 414 476 35,000  Level Jacksonville Center
04:25PM 31.2261 -77.5728 354° North 414 476 35,000  Level Jacksonville Center
04:26PM 31.3419 -77.5978 350° North 414 476 35,000 -60 Level Jacksonville Center
04:27PM 31.4581 -77.6300 347° North 423 487 34,900 -60 Descending Jacksonville Center
04:28PM 31.5739 -77.6553 349° North 413 475 34,900  Level Jacksonville Center
04:29PM 31.6897 -77.6756 352° North 419 482 35,000 600 Climbing Jacksonville Center
04:30PM 31.8033 -77.7008 349° North 414 476 36,200 960 Climbing Jacksonville Center
04:31PM 31.9153 -77.7289 348° North 414 476 37,000 360 Climbing Jacksonville Center
04:32PM 32.0244 -77.7494 351° North 407 468 37,000  Level Jacksonville Center
04:33PM 32.1339 -77.7706 351° North 402 463 37,000  Level Jacksonville Center
04:34PM 32.2433 -77.7939 350° North 397 457 37,000  Level Jacksonville Center
04:35PM 32.3508 -77.8172 350° North 392 451 37,000 -60 Level Jacksonville Center
04:36PM 32.4603 -77.8383 351° North 392 451 36,900 -60 Descending Jacksonville Center
04:37PM 32.5656 -77.8644 348° North 392 451 36,900  Level Jacksonville Center
04:38PM 32.6750 -77.8903 349° North 392 451 36,900  Level Jacksonville Center
04:39PM 32.7764 -77.9169 348° North 387 445 37,000  Climbing Jacksonville Center
04:40PM 32.8750 -77.9336 352° North 375 432 36,900 -60 Descending Jacksonville Center
04:41PM 32.9761 -77.9528 351° North 370 426 36,900  Level Jacksonville Center
04:42PM 33.0731 -77.9772 348° North 365 420 36,900  Level Jacksonville Center
04:43PM 33.1739 -77.9967 351° North 359 413 36,900  Level Jacksonville Center
04:45PM 33.3522 -78.0353 350° North 355 409 37,000  Climbing Washington Center
04:46PM 33.4539 -78.0531 352° North 355 409 37,000  Level Washington Center
04:47PM 33.5600 -78.0736 351° North 368 423 37,000  Level Washington Center
04:48PM 33.6686 -78.0644 North 378 435 37,000 -60 Level Washington Center
04:49PM 33.7756 -78.0350 13° North 385 443 36,900  Descending Washington Center
04:50PM 33.8867 -78.0058 12° North 390 449 37,000  Climbing Washington Center
04:51PM 33.9894 -77.9739 14° North 408 470 37,000  Level Washington Center
04:52PM 34.1008 -77.9444 12° North 408 470 37,000  Level Washington Center
04:53PM 34.2119 -77.9150 12° North 408 470 37,000  Level Washington Center
04:54PM 34.3292 -77.8856 12° North 417 480 37,000  Level Washington Center
04:55PM 34.4422 -77.8761 North 417 480 37,000  Level Washington Center
04:56PM 34.5547 -77.8742 North 411 473 37,000  Level Washington Center
04:57PM 34.6675 -77.8747 360° North 405 466 37,000 -60 Level Washington Center
04:58PM 34.7803 -77.8728 North 405 466 36,900  Descending Washington Center
04:59PM 34.8908 -77.8658 North 405 466 37,000  Climbing Washington Center
05:00PM 35.0058 -77.8642 North 405 466 37,000  Level Washington Center
05:01PM 35.1183 -77.8622 North 405 466 37,000  Level Washington Center
05:02PM 35.2311 -77.8603 North 405 466 37,000  Level Washington Center
05:03PM 35.3458 -77.8583 North 405 466 37,000  Level Washington Center
05:04PM 35.4586 -77.8564 North 405 466 37,000  Level Washington Center
05:05PM 35.5733 -77.8547 North 405 466 37,000  Level Washington Center
05:06PM 35.6861 -77.8553 360° North 405 466 37,000  Level Washington Center
05:07PM 35.7947 -77.8558 360° North 400 460 37,000  Level Washington Center
05:08PM 35.9031 -77.8511 North 395 455 37,000  Level Washington Center
05:09PM 36.0158 -77.8519 360° North 395 455 37,000  Level Washington Center
05:10PM 36.1244 -77.8497 North 395 455 37,000  Level Washington Center
05:11PM 36.2350 -77.8478 North 395 455 37,000  Level Washington Center
05:12PM 36.3414 -77.8456 North 390 449 37,000  Level Washington Center
05:13PM 36.4478 -77.8461 360° North 382 440 37,000  Level Washington Center
05:14PM 36.5564 -77.8442 North 382 440 37,000  Level Washington Center
05:15PM 36.6669 -77.8447 360° North 388 447 37,000  Level Washington Center
05:16PM 36.7756 -77.8400 North 388 447 37,000  Level Washington Center
05:17PM 36.8842 -77.8381 North 383 441 37,000  Level Washington Center
05:18PM 36.9933 -77.7892 20° North 395 455 37,000  Level Washington Center
05:19PM 37.1011 -77.7247 25° Northeast 406 467 37,000  Level Washington Center
05:20PM 37.2086 -77.6597 26° Northeast 420 483 37,000  Level Washington Center
05:21PM 37.3161 -77.5947 26° Northeast 425 489 37,000  Level Washington Center
05:22PM 37.4233 -77.5322 25° Northeast 425 489 37,000  Level Washington Center
05:23PM 37.5308 -77.4669 26° Northeast 425 489 37,000  Level Washington Center
05:24PM 37.6383 -77.4014 26° Northeast 425 489 37,000  Level Washington Center
05:25PM 37.7433 -77.3356 26° Northeast 425 489 37,000  Level Washington Center
05:26PM 37.8550 -77.2697 25° Northeast 425 489 37,000  Level Washington Center
05:27PM 37.9644 -77.2011 26° Northeast 425 489 37,000  Level Washington Center
05:28PM 38.0758 -77.1347 25° Northeast 425 489 37,000  Level Washington Center
05:29PM 38.1872 -77.0658 26° Northeast 431 496 37,000  Level Washington Center
05:30PM 38.2942 -76.9992 26° Northeast 431 496 37,000  Level Washington Center
05:31PM 38.4033 -76.9322 26° Northeast 426 490 37,000  Level Washington Center
05:32PM 38.5125 -76.8625 27° Northeast 426 490 37,000  Level Washington Center
05:33PM 38.6239 -76.7956 25° Northeast 426 490 37,000  Level Washington Center
05:34PM 38.7331 -76.7119 31° Northeast 437 503 37,000  Level Washington Center
05:35PM 38.8278 -76.6069 41° Northeast 448 516 37,000  Level Washington Center
05:36PM 38.9244 -76.4936 42° Northeast 454 522 37,000 -540 Level Washington Center
05:37PM 39.0211 -76.3797 42° Northeast 459 528 36,000 -1,920 Descending Washington Center
05:38PM 39.1178 -76.2683 42° Northeast 464 534 33,100 -2,520 Descending Washington Center
05:39PM 39.2267 -76.1436 42° Northeast 471 542 30,900 -1,920 Descending Washington Center
05:40PM 39.3253 -76.0261 43° Northeast 476 548 29,300 -2,040 Descending Washington Center
05:41PM 39.4214 -75.9167 41° Northeast 469 540 26,900 -2,400 Descending Washington Center
05:42PM 39.5114 -75.8094 43° Northeast 455 524 24,500 -2,460 Descending Washington Center
05:43PM 39.5989 -75.7047 43° Northeast 442 509 22,100 -2,400 Descending Washington Center
05:44PM 39.6844 -75.6022 43° Northeast 424 488 19,800 -1,980 Descending Washington Center
05:45PM 39.7656 -75.5025 43° Northeast 413 475 18,200 -1,440 Descending Washington Center
05:46PM 39.8383 -75.4158 42° Northeast 402 463 16,900 -1,500 Descending Washington Center
05:47PM 39.9153 -75.3236 43° Northeast 388 447 15,300 -1,620 Descending Washington Center
05:48PM 39.9900 -75.2342 43° Northeast 372 428 13,800 -1,500 Descending Washington Center
05:49PM 40.0647 -75.1414 44° Northeast 372 428 12,300 -1,500 Descending Washington Center
05:50PM 40.1353 -75.0542 43° Northeast 367 422 10,800 -1,140 Descending Washington Center
05:51PM 40.2333 -74.9333 43° Northeast 314 361 9,700 -1,140 Descending New York TRACON
05:52PM 40.3000 -74.8500 44° Northeast 286 329 8,200 -900 Descending New York TRACON
05:53PM 40.3500 -74.7833 45° Northeast 275 316 8,000 -900 Descending New York TRACON
05:54PM 40.3667 -74.6833 78° East 287 330 6,500 -1,500 Descending New York TRACON
05:55PM 40.3667 -74.5667 90° East 284 327 5,000 -1,260 Descending New York TRACON
05:56PM 40.3833 -74.4833 75° East 275 316 4,000 -1,020 Descending New York TRACON
05:57PM 40.4167 -74.3833 66° East 268 308 3,000 -480 Descending New York TRACON
05:58PM 40.4667 -74.3167 45° Northeast 247 284 3,100  Climbing New York TRACON
05:59PM 40.5167 -74.2833 27° Northeast 186 214 3,100 -180 Level New York TRACON
06:00PM 40.5500 -74.2500 37° Northeast 177 204 2,800 -660 Descending New York TRACON
06:01PM 40.6000 -74.2167 27° Northeast 176 203 1,800 -900 Descending New York TRACON
06:02PM 40.6333 -74.2000 21° North 142 163 1,000 -900 Descending New York TRACON